sensor_id;sensor_type;location;lat;lon;timestamp;P1;durP1;ratioP1;P2;durP2;ratioP2
58918;SDS011;44704;50.122;19.932;2022-09-03T00:05:55;4.20;;;1.60;;
58918;SDS011;44704;50.122;19.932;2022-09-03T00:09:18;9.20;;;1.70;;
58918;SDS011;44704;50.122;19.932;2022-09-03T00:11:28;3.60;;;1.50;;
58918;SDS011;44704;50.122;19.932;2022-09-03T00:14:05;2.80;;;1.30;;
58918;SDS011;44704;50.122;19.932;2022-09-03T00:19:24;4.60;;;1.70;;
58918;SDS011;44704;50.122;19.932;2022-09-03T00:22:07;3.60;;;1.40;;
58918;SDS011;44704;50.122;19.932;2022-09-03T00:24:38;2.90;;;1.30;;
58918;SDS011;44704;50.122;19.932;2022-09-03T00:27:10;2.80;;;1.50;;
58918;SDS011;44704;50.122;19.932;2022-09-03T00:29:45;3.50;;;1.40;;
58918;SDS011;44704;50.122;19.932;2022-09-03T00:37:54;2.70;;;1.60;;
58918;SDS011;44704;50.122;19.932;2022-09-03T00:43:01;3.00;;;1.60;;
58918;SDS011;44704;50.122;19.932;2022-09-03T00:46:37;3.90;;;1.30;;
58918;SDS011;44704;50.122;19.932;2022-09-03T01:00:19;3.50;;;1.70;;
58918;SDS011;44704;50.122;19.932;2022-09-03T01:02:50;3.20;;;1.90;;
58918;SDS011;44704;50.122;19.932;2022-09-03T01:08:18;3.80;;;1.80;;
58918;SDS011;44704;50.122;19.932;2022-09-03T01:13:48;4.20;;;1.80;;
58918;SDS011;44704;50.122;19.932;2022-09-03T01:34:25;3.80;;;2.00;;
58918;SDS011;44704;50.122;19.932;2022-09-03T01:39:17;3.60;;;1.50;;
58918;SDS011;44704;50.122;19.932;2022-09-03T01:42:00;5.00;;;1.80;;
58918;SDS011;44704;50.122;19.932;2022-09-03T01:55:32;5.60;;;2.00;;
58918;SDS011;44704;50.122;19.932;2022-09-03T01:58:14;2.70;;;1.60;;
58918;SDS011;44704;50.122;19.932;2022-09-03T02:00:48;3.40;;;1.80;;
58918;SDS011;44704;50.122;19.932;2022-09-03T02:03:22;2.50;;;1.70;;
58918;SDS011;44704;50.122;19.932;2022-09-03T02:05:51;5.20;;;1.90;;
58918;SDS011;44704;50.122;19.932;2022-09-03T02:08:18;5.20;;;1.90;;
58918;SDS011;44704;50.122;19.932;2022-09-03T02:10:52;6.20;;;1.90;;
58918;SDS011;44704;50.122;19.932;2022-09-03T02:13:24;3.50;;;1.70;;
58918;SDS011;44704;50.122;19.932;2022-09-03T02:15:58;3.10;;;1.80;;
58918;SDS011;44704;50.122;19.932;2022-09-03T02:18:36;3.20;;;1.40;;
58918;SDS011;44704;50.122;19.932;2022-09-03T02:21:07;3.20;;;1.90;;
58918;SDS011;44704;50.122;19.932;2022-09-03T02:23:37;6.50;;;2.30;;
58918;SDS011;44704;50.122;19.932;2022-09-03T02:26:06;4.10;;;2.00;;
58918;SDS011;44704;50.122;19.932;2022-09-03T02:31:03;5.50;;;1.90;;
58918;SDS011;44704;50.122;19.932;2022-09-03T02:33:37;5.80;;;1.90;;
58918;SDS011;44704;50.122;19.932;2022-09-03T02:36:07;3.80;;;2.50;;
58918;SDS011;44704;50.122;19.932;2022-09-03T02:38:37;5.10;;;2.40;;
58918;SDS011;44704;50.122;19.932;2022-09-03T02:41:06;3.40;;;2.10;;
58918;SDS011;44704;50.122;19.932;2022-09-03T02:43:36;3.90;;;2.00;;
58918;SDS011;44704;50.122;19.932;2022-09-03T02:46:16;6.50;;;2.10;;
58918;SDS011;44704;50.122;19.932;2022-09-03T02:48:47;4.70;;;2.00;;
58918;SDS011;44704;50.122;19.932;2022-09-03T02:51:14;4.70;;;2.20;;
58918;SDS011;44704;50.122;19.932;2022-09-03T02:53:41;3.90;;;2.00;;
58918;SDS011;44704;50.122;19.932;2022-09-03T02:56:09;5.20;;;2.40;;
58918;SDS011;44704;50.122;19.932;2022-09-03T02:58:36;5.50;;;2.40;;
58918;SDS011;44704;50.122;19.932;2022-09-03T03:01:04;4.40;;;2.00;;
58918;SDS011;44704;50.122;19.932;2022-09-03T03:03:31;6.80;;;2.50;;
58918;SDS011;44704;50.122;19.932;2022-09-03T03:05:59;4.00;;;2.20;;
58918;SDS011;44704;50.122;19.932;2022-09-03T03:08:29;5.20;;;2.50;;
58918;SDS011;44704;50.122;19.932;2022-09-03T03:10:57;5.40;;;2.00;;
58918;SDS011;44704;50.122;19.932;2022-09-03T03:13:26;6.70;;;2.20;;
58918;SDS011;44704;50.122;19.932;2022-09-03T03:15:57;4.90;;;2.90;;
58918;SDS011;44704;50.122;19.932;2022-09-03T03:18:26;3.40;;;2.10;;
58918;SDS011;44704;50.122;19.932;2022-09-03T03:20:53;4.70;;;2.30;;
58918;SDS011;44704;50.122;19.932;2022-09-03T03:23:20;3.80;;;2.40;;
58918;SDS011;44704;50.122;19.932;2022-09-03T03:25:47;3.60;;;2.20;;
58918;SDS011;44704;50.122;19.932;2022-09-03T03:28:14;5.00;;;2.60;;
58918;SDS011;44704;50.122;19.932;2022-09-03T03:30:41;5.60;;;2.40;;
58918;SDS011;44704;50.122;19.932;2022-09-03T03:33:11;4.80;;;2.40;;
58918;SDS011;44704;50.122;19.932;2022-09-03T03:35:38;2.90;;;2.00;;
58918;SDS011;44704;50.122;19.932;2022-09-03T03:38:06;6.70;;;2.70;;
58918;SDS011;44704;50.122;19.932;2022-09-03T03:40:33;4.80;;;2.20;;
58918;SDS011;44704;50.122;19.932;2022-09-03T03:43:00;6.40;;;2.70;;
58918;SDS011;44704;50.122;19.932;2022-09-03T03:45:29;6.40;;;2.30;;
58918;SDS011;44704;50.122;19.932;2022-09-03T03:47:56;6.40;;;2.90;;
58918;SDS011;44704;50.122;19.932;2022-09-03T03:50:24;4.90;;;2.60;;
58918;SDS011;44704;50.122;19.932;2022-09-03T03:52:51;5.90;;;2.60;;
58918;SDS011;44704;50.122;19.932;2022-09-03T03:55:18;4.00;;;2.30;;
58918;SDS011;44704;50.122;19.932;2022-09-03T03:57:45;7.90;;;2.90;;
58918;SDS011;44704;50.122;19.932;2022-09-03T04:00:12;7.70;;;3.00;;
58918;SDS011;44704;50.122;19.932;2022-09-03T04:02:43;6.00;;;2.60;;
58918;SDS011;44704;50.122;19.932;2022-09-03T04:05:10;4.90;;;2.40;;
58918;SDS011;44704;50.122;19.932;2022-09-03T04:07:36;5.80;;;2.80;;
58918;SDS011;44704;50.122;19.932;2022-09-03T04:10:03;5.50;;;2.50;;
58918;SDS011;44704;50.122;19.932;2022-09-03T04:12:38;6.70;;;2.70;;
58918;SDS011;44704;50.122;19.932;2022-09-03T04:15:05;4.90;;;2.50;;
58918;SDS011;44704;50.122;19.932;2022-09-03T04:17:32;5.30;;;2.70;;
58918;SDS011;44704;50.122;19.932;2022-09-03T04:19:59;5.70;;;2.40;;
58918;SDS011;44704;50.122;19.932;2022-09-03T04:22:27;4.00;;;2.80;;
58918;SDS011;44704;50.122;19.932;2022-09-03T04:24:54;7.00;;;2.40;;
58918;SDS011;44704;50.122;19.932;2022-09-03T04:27:21;6.40;;;2.60;;
58918;SDS011;44704;50.122;19.932;2022-09-03T04:29:48;5.40;;;2.50;;
58918;SDS011;44704;50.122;19.932;2022-09-03T04:32:19;7.60;;;3.00;;
58918;SDS011;44704;50.122;19.932;2022-09-03T04:35:05;5.50;;;2.50;;
58918;SDS011;44704;50.122;19.932;2022-09-03T04:37:32;6.80;;;2.50;;
58918;SDS011;44704;50.122;19.932;2022-09-03T04:40:01;5.00;;;2.40;;
58918;SDS011;44704;50.122;19.932;2022-09-03T04:42:28;3.60;;;2.30;;
58918;SDS011;44704;50.122;19.932;2022-09-03T04:44:54;4.60;;;2.50;;
58918;SDS011;44704;50.122;19.932;2022-09-03T04:47:21;7.40;;;2.50;;
58918;SDS011;44704;50.122;19.932;2022-09-03T04:49:48;6.30;;;2.50;;
58918;SDS011;44704;50.122;19.932;2022-09-03T04:52:15;5.50;;;2.50;;
58918;SDS011;44704;50.122;19.932;2022-09-03T04:54:42;4.10;;;2.60;;
58918;SDS011;44704;50.122;19.932;2022-09-03T04:57:09;4.70;;;2.80;;
58918;SDS011;44704;50.122;19.932;2022-09-03T04:59:36;4.70;;;2.40;;
58918;SDS011;44704;50.122;19.932;2022-09-03T05:02:03;4.70;;;2.70;;
58918;SDS011;44704;50.122;19.932;2022-09-03T05:04:30;3.50;;;2.50;;
58918;SDS011;44704;50.122;19.932;2022-09-03T05:07:06;4.70;;;2.50;;
58918;SDS011;44704;50.122;19.932;2022-09-03T05:09:35;5.00;;;2.60;;
58918;SDS011;44704;50.122;19.932;2022-09-03T05:14:29;7.40;;;3.10;;
58918;SDS011;44704;50.122;19.932;2022-09-03T05:16:55;5.00;;;2.90;;
58918;SDS011;44704;50.122;19.932;2022-09-03T05:19:23;5.70;;;3.10;;
58918;SDS011;44704;50.122;19.932;2022-09-03T05:21:51;7.10;;;3.00;;
58918;SDS011;44704;50.122;19.932;2022-09-03T05:24:17;7.90;;;2.70;;
58918;SDS011;44704;50.122;19.932;2022-09-03T05:26:45;5.50;;;2.90;;
58918;SDS011;44704;50.122;19.932;2022-09-03T05:29:12;4.70;;;3.40;;
58918;SDS011;44704;50.122;19.932;2022-09-03T05:31:39;4.80;;;3.10;;
58918;SDS011;44704;50.122;19.932;2022-09-03T05:34:06;7.30;;;3.20;;
58918;SDS011;44704;50.122;19.932;2022-09-03T05:36:35;4.60;;;2.80;;
58918;SDS011;44704;50.122;19.932;2022-09-03T05:39:04;3.90;;;2.90;;
58918;SDS011;44704;50.122;19.932;2022-09-03T05:41:31;3.60;;;2.70;;
58918;SDS011;44704;50.122;19.932;2022-09-03T05:43:59;5.20;;;2.60;;
58918;SDS011;44704;50.122;19.932;2022-09-03T05:46:27;5.60;;;3.30;;
58918;SDS011;44704;50.122;19.932;2022-09-03T05:49:00;6.10;;;3.40;;
58918;SDS011;44704;50.122;19.932;2022-09-03T05:51:28;4.70;;;3.00;;
58918;SDS011;44704;50.122;19.932;2022-09-03T05:53:56;4.50;;;3.00;;
58918;SDS011;44704;50.122;19.932;2022-09-03T05:56:24;6.60;;;4.50;;
58918;SDS011;44704;50.122;19.932;2022-09-03T06:01:23;5.60;;;2.90;;
58918;SDS011;44704;50.122;19.932;2022-09-03T06:03:55;4.00;;;3.00;;
58918;SDS011;44704;50.122;19.932;2022-09-03T06:06:26;5.10;;;3.60;;
58918;SDS011;44704;50.122;19.932;2022-09-03T06:08:59;6.60;;;3.10;;
58918;SDS011;44704;50.122;19.932;2022-09-03T06:11:28;6.70;;;3.80;;
58918;SDS011;44704;50.122;19.932;2022-09-03T06:13:58;7.40;;;3.70;;
58918;SDS011;44704;50.122;19.932;2022-09-03T06:16:27;5.80;;;2.90;;
58918;SDS011;44704;50.122;19.932;2022-09-03T06:18:55;6.00;;;2.80;;
58918;SDS011;44704;50.122;19.932;2022-09-03T06:21:23;5.30;;;3.70;;
58918;SDS011;44704;50.122;19.932;2022-09-03T06:23:50;5.00;;;3.20;;
58918;SDS011;44704;50.122;19.932;2022-09-03T06:26:21;4.10;;;3.20;;
58918;SDS011;44704;50.122;19.932;2022-09-03T06:28:48;7.10;;;3.10;;
58918;SDS011;44704;50.122;19.932;2022-09-03T06:31:16;4.70;;;2.90;;
58918;SDS011;44704;50.122;19.932;2022-09-03T06:33:45;9.30;;;3.40;;
58918;SDS011;44704;50.122;19.932;2022-09-03T06:36:14;6.70;;;2.90;;
58918;SDS011;44704;50.122;19.932;2022-09-03T06:38:43;7.60;;;4.00;;
58918;SDS011;44704;50.122;19.932;2022-09-03T06:41:12;6.40;;;2.90;;
58918;SDS011;44704;50.122;19.932;2022-09-03T06:43:42;7.20;;;2.90;;
58918;SDS011;44704;50.122;19.932;2022-09-03T06:46:12;5.00;;;3.10;;
58918;SDS011;44704;50.122;19.932;2022-09-03T06:48:40;7.10;;;3.50;;
58918;SDS011;44704;50.122;19.932;2022-09-03T06:51:09;4.60;;;3.00;;
58918;SDS011;44704;50.122;19.932;2022-09-03T06:53:42;5.30;;;3.10;;
58918;SDS011;44704;50.122;19.932;2022-09-03T06:56:15;5.90;;;2.70;;
58918;SDS011;44704;50.122;19.932;2022-09-03T06:58:44;5.80;;;3.20;;
58918;SDS011;44704;50.122;19.932;2022-09-03T07:01:14;5.80;;;2.70;;
58918;SDS011;44704;50.122;19.932;2022-09-03T07:03:45;4.70;;;3.20;;
58918;SDS011;44704;50.122;19.932;2022-09-03T07:06:14;5.80;;;3.40;;
58918;SDS011;44704;50.122;19.932;2022-09-03T07:08:43;5.70;;;3.60;;
58918;SDS011;44704;50.122;19.932;2022-09-03T07:11:13;4.20;;;3.00;;
58918;SDS011;44704;50.122;19.932;2022-09-03T07:13:46;4.40;;;3.30;;
58918;SDS011;44704;50.122;19.932;2022-09-03T07:16:15;5.50;;;3.10;;
58918;SDS011;44704;50.122;19.932;2022-09-03T07:18:42;3.70;;;2.70;;
58918;SDS011;44704;50.122;19.932;2022-09-03T07:21:13;4.70;;;2.70;;
58918;SDS011;44704;50.122;19.932;2022-09-03T07:23:45;4.00;;;2.90;;
58918;SDS011;44704;50.122;19.932;2022-09-03T07:26:21;4.10;;;3.00;;
58918;SDS011;44704;50.122;19.932;2022-09-03T07:28:53;6.70;;;3.40;;
58918;SDS011;44704;50.122;19.932;2022-09-03T07:31:24;4.40;;;2.80;;
58918;SDS011;44704;50.122;19.932;2022-09-03T07:34:02;6.00;;;3.30;;
58918;SDS011;44704;50.122;19.932;2022-09-03T07:36:37;4.30;;;2.90;;
58918;SDS011;44704;50.122;19.932;2022-09-03T07:39:04;5.70;;;3.20;;
58918;SDS011;44704;50.122;19.932;2022-09-03T07:41:31;4.20;;;2.90;;
58918;SDS011;44704;50.122;19.932;2022-09-03T07:43:58;5.80;;;3.10;;
58918;SDS011;44704;50.122;19.932;2022-09-03T07:46:31;5.00;;;2.60;;
58918;SDS011;44704;50.122;19.932;2022-09-03T07:49:00;4.70;;;3.00;;
58918;SDS011;44704;50.122;19.932;2022-09-03T07:51:30;4.30;;;2.80;;
58918;SDS011;44704;50.122;19.932;2022-09-03T07:54:00;4.10;;;2.60;;
58918;SDS011;44704;50.122;19.932;2022-09-03T07:56:30;3.40;;;2.20;;
58918;SDS011;44704;50.122;19.932;2022-09-03T07:58:57;4.60;;;2.60;;
58918;SDS011;44704;50.122;19.932;2022-09-03T08:03:54;2.80;;;2.40;;
58918;SDS011;44704;50.122;19.932;2022-09-03T08:06:22;3.60;;;2.60;;
58918;SDS011;44704;50.122;19.932;2022-09-03T08:08:58;2.60;;;2.20;;
58918;SDS011;44704;50.122;19.932;2022-09-03T08:11:27;2.40;;;2.00;;
58918;SDS011;44704;50.122;19.932;2022-09-03T08:14:02;3.90;;;2.40;;
58918;SDS011;44704;50.122;19.932;2022-09-03T08:16:33;3.10;;;2.30;;
58918;SDS011;44704;50.122;19.932;2022-09-03T08:19:01;5.50;;;2.50;;
58918;SDS011;44704;50.122;19.932;2022-09-03T08:21:29;3.70;;;2.40;;
58918;SDS011;44704;50.122;19.932;2022-09-03T08:23:56;3.50;;;2.70;;
58918;SDS011;44704;50.122;19.932;2022-09-03T08:26:28;3.40;;;2.20;;
58918;SDS011;44704;50.122;19.932;2022-09-03T08:28:57;3.70;;;2.40;;
58918;SDS011;44704;50.122;19.932;2022-09-03T08:31:25;3.20;;;2.30;;
58918;SDS011;44704;50.122;19.932;2022-09-03T08:33:54;3.10;;;2.30;;
58918;SDS011;44704;50.122;19.932;2022-09-03T08:36:23;2.80;;;2.20;;
58918;SDS011;44704;50.122;19.932;2022-09-03T08:38:53;5.70;;;2.50;;
58918;SDS011;44704;50.122;19.932;2022-09-03T08:49:57;2.60;;;2.40;;
58918;SDS011;44704;50.122;19.932;2022-09-03T09:03:41;2.90;;;2.40;;
58918;SDS011;44704;50.122;19.932;2022-09-03T09:09:04;3.00;;;2.40;;
58918;SDS011;44704;50.122;19.932;2022-09-03T09:11:39;4.20;;;3.00;;
58918;SDS011;44704;50.122;19.932;2022-09-03T09:16:53;8.10;;;2.90;;
58918;SDS011;44704;50.122;19.932;2022-09-03T09:19:50;2.90;;;2.40;;
58918;SDS011;44704;50.122;19.932;2022-09-03T09:22:43;4.20;;;2.40;;
58918;SDS011;44704;50.122;19.932;2022-09-03T09:25:18;3.90;;;2.90;;
58918;SDS011;44704;50.122;19.932;2022-09-03T09:28:01;4.10;;;2.90;;
58918;SDS011;44704;50.122;19.932;2022-09-03T09:30:35;3.90;;;2.80;;
58918;SDS011;44704;50.122;19.932;2022-09-03T09:33:03;3.20;;;2.90;;
58918;SDS011;44704;50.122;19.932;2022-09-03T09:35:30;2.60;;;2.40;;
58918;SDS011;44704;50.122;19.932;2022-09-03T09:37:57;3.00;;;2.80;;
58918;SDS011;44704;50.122;19.932;2022-09-03T09:40:31;6.80;;;3.10;;
58918;SDS011;44704;50.122;19.932;2022-09-03T09:45:38;4.20;;;2.40;;
58918;SDS011;44704;50.122;19.932;2022-09-03T09:48:08;4.10;;;2.90;;
58918;SDS011;44704;50.122;19.932;2022-09-03T09:50:41;4.30;;;3.20;;
58918;SDS011;44704;50.122;19.932;2022-09-03T09:53:09;3.80;;;2.80;;
58918;SDS011;44704;50.122;19.932;2022-09-03T09:58:33;4.20;;;3.10;;
58918;SDS011;44704;50.122;19.932;2022-09-03T10:01:20;3.30;;;2.80;;
58918;SDS011;44704;50.122;19.932;2022-09-03T10:03:55;3.10;;;2.70;;
58918;SDS011;44704;50.122;19.932;2022-09-03T10:06:25;5.40;;;2.70;;
58918;SDS011;44704;50.122;19.932;2022-09-03T10:09:15;4.60;;;2.80;;
58918;SDS011;44704;50.122;19.932;2022-09-03T10:12:34;2.70;;;2.50;;
58918;SDS011;44704;50.122;19.932;2022-09-03T10:14:50;4.20;;;2.70;;
58918;SDS011;44704;50.122;19.932;2022-09-03T10:28:15;3.10;;;2.80;;
58918;SDS011;44704;50.122;19.932;2022-09-03T10:30:50;4.50;;;3.40;;
58918;SDS011;44704;50.122;19.932;2022-09-03T10:33:38;3.70;;;2.80;;
58918;SDS011;44704;50.122;19.932;2022-09-03T10:36:16;3.90;;;3.30;;
58918;SDS011;44704;50.122;19.932;2022-09-03T10:38:56;3.20;;;2.90;;
58918;SDS011;44704;50.122;19.932;2022-09-03T10:41:44;3.50;;;3.20;;
58918;SDS011;44704;50.122;19.932;2022-09-03T10:44:30;5.40;;;3.30;;
58918;SDS011;44704;50.122;19.932;2022-09-03T10:47:26;3.50;;;3.10;;
58918;SDS011;44704;50.122;19.932;2022-09-03T10:50:14;3.40;;;2.90;;
58918;SDS011;44704;50.122;19.932;2022-09-03T10:58:23;4.80;;;3.10;;
58918;SDS011;44704;50.122;19.932;2022-09-03T11:01:21;3.40;;;3.10;;
58918;SDS011;44704;50.122;19.932;2022-09-03T11:06:42;4.00;;;3.50;;
58918;SDS011;44704;50.122;19.932;2022-09-03T11:11:55;4.40;;;3.60;;
58918;SDS011;44704;50.122;19.932;2022-09-03T11:14:44;4.80;;;3.40;;
58918;SDS011;44704;50.122;19.932;2022-09-03T11:17:20;4.70;;;3.30;;
58918;SDS011;44704;50.122;19.932;2022-09-03T11:19:54;5.30;;;3.50;;
58918;SDS011;44704;50.122;19.932;2022-09-03T11:22:33;5.40;;;3.20;;
58918;SDS011;44704;50.122;19.932;2022-09-03T11:25:02;5.10;;;3.40;;
58918;SDS011;44704;50.122;19.932;2022-09-03T11:32:47;5.00;;;3.40;;
58918;SDS011;44704;50.122;19.932;2022-09-03T11:35:26;3.40;;;3.10;;
58918;SDS011;44704;50.122;19.932;2022-09-03T11:43:13;4.00;;;3.20;;
58918;SDS011;44704;50.122;19.932;2022-09-03T11:48:36;4.10;;;2.70;;
58918;SDS011;44704;50.122;19.932;2022-09-03T11:51:18;4.40;;;2.90;;
58918;SDS011;44704;50.122;19.932;2022-09-03T11:57:38;4.90;;;2.80;;
58918;SDS011;44704;50.122;19.932;2022-09-03T11:59:48;2.90;;;2.70;;
58918;SDS011;44704;50.122;19.932;2022-09-03T12:02:31;3.00;;;2.70;;
58918;SDS011;44704;50.122;19.932;2022-09-03T12:19:01;5.00;;;2.70;;
58918;SDS011;44704;50.122;19.932;2022-09-03T12:21:37;5.10;;;2.90;;
58918;SDS011;44704;50.122;19.932;2022-09-03T12:24:09;4.90;;;2.90;;
58918;SDS011;44704;50.122;19.932;2022-09-03T12:26:39;6.40;;;3.20;;
58918;SDS011;44704;50.122;19.932;2022-09-03T12:29:25;3.50;;;2.90;;
58918;SDS011;44704;50.122;19.932;2022-09-03T12:31:53;5.60;;;2.80;;
58918;SDS011;44704;50.122;19.932;2022-09-03T12:34:24;3.40;;;3.00;;
58918;SDS011;44704;50.122;19.932;2022-09-03T12:36:53;4.90;;;3.20;;
58918;SDS011;44704;50.122;19.932;2022-09-03T12:39:24;3.00;;;2.50;;
58918;SDS011;44704;50.122;19.932;2022-09-03T12:42:06;5.10;;;2.80;;
58918;SDS011;44704;50.122;19.932;2022-09-03T12:44:39;3.90;;;2.50;;
58918;SDS011;44704;50.122;19.932;2022-09-03T12:47:11;3.70;;;2.30;;
58918;SDS011;44704;50.122;19.932;2022-09-03T12:49:40;4.40;;;2.40;;
58918;SDS011;44704;50.122;19.932;2022-09-03T12:52:28;3.30;;;2.40;;
58918;SDS011;44704;50.122;19.932;2022-09-03T12:57:29;2.60;;;2.20;;
58918;SDS011;44704;50.122;19.932;2022-09-03T13:00:06;2.50;;;2.20;;
58918;SDS011;44704;50.122;19.932;2022-09-03T13:02:43;4.50;;;2.60;;
58918;SDS011;44704;50.122;19.932;2022-09-03T13:05:32;2.40;;;2.10;;
58918;SDS011;44704;50.122;19.932;2022-09-03T13:08:07;4.30;;;2.60;;
58918;SDS011;44704;50.122;19.932;2022-09-03T13:10:40;4.70;;;2.60;;
58918;SDS011;44704;50.122;19.932;2022-09-03T13:21:20;3.40;;;2.50;;
58918;SDS011;44704;50.122;19.932;2022-09-03T13:34:53;3.70;;;2.10;;
58918;SDS011;44704;50.122;19.932;2022-09-03T13:37:37;3.40;;;2.50;;
58918;SDS011;44704;50.122;19.932;2022-09-03T13:43:01;5.80;;;2.70;;
58918;SDS011;44704;50.122;19.932;2022-09-03T13:45:57;3.90;;;3.10;;
58918;SDS011;44704;50.122;19.932;2022-09-03T13:52:07;3.90;;;2.70;;
58918;SDS011;44704;50.122;19.932;2022-09-03T13:56:58;3.80;;;3.50;;
58918;SDS011;44704;50.122;19.932;2022-09-03T13:59:39;3.00;;;2.70;;
58918;SDS011;44704;50.122;19.932;2022-09-03T14:13:37;3.30;;;2.80;;
58918;SDS011;44704;50.122;19.932;2022-09-03T14:18:53;3.90;;;2.30;;
58918;SDS011;44704;50.122;19.932;2022-09-03T14:21:27;2.70;;;2.40;;
58918;SDS011;44704;50.122;19.932;2022-09-03T14:24:00;3.40;;;2.40;;
58918;SDS011;44704;50.122;19.932;2022-09-03T14:26:36;4.60;;;2.90;;
58918;SDS011;44704;50.122;19.932;2022-09-03T14:37:07;4.40;;;3.00;;
58918;SDS011;44704;50.122;19.932;2022-09-03T14:39:48;3.50;;;2.70;;
58918;SDS011;44704;50.122;19.932;2022-09-03T14:42:30;3.40;;;2.30;;
58918;SDS011;44704;50.122;19.932;2022-09-03T14:56:20;4.40;;;2.60;;
58918;SDS011;44704;50.122;19.932;2022-09-03T14:59:02;2.70;;;2.30;;
58918;SDS011;44704;50.122;19.932;2022-09-03T15:01:42;4.10;;;2.50;;
58918;SDS011;44704;50.122;19.932;2022-09-03T15:07:20;2.50;;;2.30;;
58918;SDS011;44704;50.122;19.932;2022-09-03T15:12:51;3.00;;;2.40;;
58918;SDS011;44704;50.122;19.932;2022-09-03T15:15:21;3.80;;;2.30;;
58918;SDS011;44704;50.122;19.932;2022-09-03T15:43:04;3.20;;;2.60;;
58918;SDS011;44704;50.122;19.932;2022-09-03T15:45:39;3.90;;;3.00;;
58918;SDS011;44704;50.122;19.932;2022-09-03T15:48:28;4.20;;;2.50;;
58918;SDS011;44704;50.122;19.932;2022-09-03T16:01:27;4.00;;;2.60;;
58918;SDS011;44704;50.122;19.932;2022-09-03T16:06:55;3.40;;;2.80;;
58918;SDS011;44704;50.122;19.932;2022-09-03T16:15:22;3.20;;;2.80;;
58918;SDS011;44704;50.122;19.932;2022-09-03T16:20:32;4.50;;;3.40;;
58918;SDS011;44704;50.122;19.932;2022-09-03T16:23:24;7.50;;;3.80;;
58918;SDS011;44704;50.122;19.932;2022-09-03T16:26:07;5.10;;;3.40;;
58918;SDS011;44704;50.122;19.932;2022-09-03T16:29:07;4.50;;;3.10;;
58918;SDS011;44704;50.122;19.932;2022-09-03T16:50:37;3.20;;;2.60;;
58918;SDS011;44704;50.122;19.932;2022-09-03T17:01:43;2.90;;;2.60;;
58918;SDS011;44704;50.122;19.932;2022-09-03T17:34:47;4.50;;;3.30;;
58918;SDS011;44704;50.122;19.932;2022-09-03T17:43:14;6.90;;;2.80;;
58918;SDS011;44704;50.122;19.932;2022-09-03T17:51:46;5.50;;;3.60;;
58918;SDS011;44704;50.122;19.932;2022-09-03T17:54:08;8.30;;;3.60;;
58918;SDS011;44704;50.122;19.932;2022-09-03T17:56:55;5.60;;;3.80;;
58918;SDS011;44704;50.122;19.932;2022-09-03T17:59:36;8.80;;;4.30;;
58918;SDS011;44704;50.122;19.932;2022-09-03T18:04:49;6.30;;;3.80;;
58918;SDS011;44704;50.122;19.932;2022-09-03T18:15:46;7.50;;;4.40;;
58918;SDS011;44704;50.122;19.932;2022-09-03T18:18:28;7.70;;;5.30;;
58918;SDS011;44704;50.122;19.932;2022-09-03T18:21:00;6.50;;;5.40;;
58918;SDS011;44704;50.122;19.932;2022-09-03T18:23:52;8.60;;;5.40;;
58918;SDS011;44704;50.122;19.932;2022-09-03T18:27:00;7.20;;;4.50;;
58918;SDS011;44704;50.122;19.932;2022-09-03T18:30:07;8.30;;;4.30;;
58918;SDS011;44704;50.122;19.932;2022-09-03T18:32:55;8.90;;;4.70;;
58918;SDS011;44704;50.122;19.932;2022-09-03T18:35:42;7.70;;;4.20;;
58918;SDS011;44704;50.122;19.932;2022-09-03T18:38:30;7.00;;;3.90;;
58918;SDS011;44704;50.122;19.932;2022-09-03T18:44:39;6.90;;;4.10;;
58918;SDS011;44704;50.122;19.932;2022-09-03T18:56:51;8.00;;;4.40;;
58918;SDS011;44704;50.122;19.932;2022-09-03T19:02:43;8.90;;;4.90;;
58918;SDS011;44704;50.122;19.932;2022-09-03T19:05:46;8.50;;;5.40;;
58918;SDS011;44704;50.122;19.932;2022-09-03T19:11:55;7.50;;;4.90;;
58918;SDS011;44704;50.122;19.932;2022-09-03T19:15:04;7.50;;;5.20;;
58918;SDS011;44704;50.122;19.932;2022-09-03T19:24:17;7.40;;;5.30;;
58918;SDS011;44704;50.122;19.932;2022-09-03T19:27:14;7.20;;;5.30;;
58918;SDS011;44704;50.122;19.932;2022-09-03T19:30:07;9.40;;;5.50;;
58918;SDS011;44704;50.122;19.932;2022-09-03T19:33:08;7.50;;;5.50;;
58918;SDS011;44704;50.122;19.932;2022-09-03T19:51:13;8.80;;;5.20;;
58918;SDS011;44704;50.122;19.932;2022-09-03T19:54:07;9.80;;;5.60;;
58918;SDS011;44704;50.122;19.932;2022-09-03T19:56:54;8.70;;;5.60;;
58918;SDS011;44704;50.122;19.932;2022-09-03T19:59:42;9.00;;;5.30;;
58918;SDS011;44704;50.122;19.932;2022-09-03T20:02:38;7.90;;;5.10;;
58918;SDS011;44704;50.122;19.932;2022-09-03T20:05:25;7.60;;;5.20;;
58918;SDS011;44704;50.122;19.932;2022-09-03T20:08:12;8.70;;;5.50;;
58918;SDS011;44704;50.122;19.932;2022-09-03T20:13:29;7.50;;;4.70;;
58918;SDS011;44704;50.122;19.932;2022-09-03T20:19:28;8.80;;;4.90;;
58918;SDS011;44704;50.122;19.932;2022-09-03T20:22:28;7.90;;;5.60;;
58918;SDS011;44704;50.122;19.932;2022-09-03T20:29:58;8.70;;;5.10;;
58918;SDS011;44704;50.122;19.932;2022-09-03T20:40:47;8.20;;;5.30;;
58918;SDS011;44704;50.122;19.932;2022-09-03T20:43:37;8.30;;;5.50;;
58918;SDS011;44704;50.122;19.932;2022-09-03T20:49:22;7.60;;;5.60;;
58918;SDS011;44704;50.122;19.932;2022-09-03T20:52:05;8.50;;;5.40;;
58918;SDS011;44704;50.122;19.932;2022-09-03T20:54:55;9.10;;;6.00;;
58918;SDS011;44704;50.122;19.932;2022-09-03T21:00:19;9.60;;;6.10;;
58918;SDS011;44704;50.122;19.932;2022-09-03T21:05:42;10.30;;;5.90;;
58918;SDS011;44704;50.122;19.932;2022-09-03T21:13:54;11.50;;;6.10;;
58918;SDS011;44704;50.122;19.932;2022-09-03T21:24:44;9.70;;;6.80;;
58918;SDS011;44704;50.122;19.932;2022-09-03T21:29:49;9.10;;;6.30;;
58918;SDS011;44704;50.122;19.932;2022-09-03T21:32:53;10.10;;;6.80;;
58918;SDS011;44704;50.122;19.932;2022-09-03T21:35:37;8.70;;;7.00;;
58918;SDS011;44704;50.122;19.932;2022-09-03T21:38:20;9.50;;;6.80;;
58918;SDS011;44704;50.122;19.932;2022-09-03T21:40:53;11.30;;;7.00;;
58918;SDS011;44704;50.122;19.932;2022-09-03T21:43:37;10.20;;;7.30;;
58918;SDS011;44704;50.122;19.932;2022-09-03T21:46:18;10.00;;;6.90;;
58918;SDS011;44704;50.122;19.932;2022-09-03T21:48:57;9.20;;;6.60;;
58918;SDS011;44704;50.122;19.932;2022-09-03T21:54:32;11.20;;;7.40;;
58918;SDS011;44704;50.122;19.932;2022-09-03T21:57:11;11.10;;;7.00;;
58918;SDS011;44704;50.122;19.932;2022-09-03T22:00:17;9.30;;;6.40;;
58918;SDS011;44704;50.122;19.932;2022-09-03T22:02:43;9.10;;;6.80;;
58918;SDS011;44704;50.122;19.932;2022-09-03T22:05:12;11.60;;;6.70;;
58918;SDS011;44704;50.122;19.932;2022-09-03T22:12:52;8.40;;;6.70;;
58918;SDS011;44704;50.122;19.932;2022-09-03T22:15:35;11.30;;;7.40;;
58918;SDS011;44704;50.122;19.932;2022-09-03T22:21:09;8.30;;;7.00;;
58918;SDS011;44704;50.122;19.932;2022-09-03T22:26:29;12.30;;;7.70;;
58918;SDS011;44704;50.122;19.932;2022-09-03T22:29:13;11.90;;;7.20;;
58918;SDS011;44704;50.122;19.932;2022-09-03T22:34:29;10.40;;;7.70;;
58918;SDS011;44704;50.122;19.932;2022-09-03T22:40:11;10.20;;;6.80;;
58918;SDS011;44704;50.122;19.932;2022-09-03T22:51:10;9.00;;;7.50;;
58918;SDS011;44704;50.122;19.932;2022-09-03T22:56:15;8.40;;;6.90;;
58918;SDS011;44704;50.122;19.932;2022-09-03T22:58:55;8.50;;;7.10;;
58918;SDS011;44704;50.122;19.932;2022-09-03T23:01:43;11.30;;;7.90;;
58918;SDS011;44704;50.122;19.932;2022-09-03T23:07:06;12.10;;;7.30;;
58918;SDS011;44704;50.122;19.932;2022-09-03T23:10:03;9.80;;;7.50;;
58918;SDS011;44704;50.122;19.932;2022-09-03T23:12:39;10.00;;;7.70;;